createdAt,value
2023-03-06T00:00:33.692Z,0.00
2023-03-06T00:01:33.393Z,0.00
2023-03-06T00:02:33.382Z,0.00
2023-03-06T00:03:33.399Z,0.00
2023-03-06T00:04:33.361Z,0.00
2023-03-06T00:05:34.146Z,0.00
2023-03-06T00:06:33.336Z,0.00
2023-03-06T00:07:33.339Z,0.00
2023-03-06T00:08:33.321Z,0.00
2023-03-06T00:09:33.310Z,0.00
2023-03-06T00:10:33.351Z,0.00
2023-03-06T00:11:33.289Z,0.00
2023-03-06T00:12:33.274Z,0.00
2023-03-06T00:13:33.271Z,0.00
2023-03-06T00:14:33.262Z,0.00
2023-03-06T00:15:33.544Z,0.00
2023-03-06T00:16:33.288Z,0.00
2023-03-06T00:17:33.248Z,0.00
2023-03-06T00:18:33.215Z,0.00
2023-03-06T00:19:33.213Z,0.00
2023-03-06T00:20:33.564Z,0.00
2023-03-06T00:21:33.193Z,0.00
2023-03-06T00:22:33.176Z,0.00
2023-03-06T00:23:33.178Z,0.00
2023-03-06T00:24:33.162Z,0.00
2023-03-06T00:25:33.162Z,0.00
2023-03-06T00:26:33.146Z,0.00
2023-03-06T00:27:33.150Z,0.00
2023-03-06T00:28:33.121Z,0.00
2023-03-06T00:29:33.112Z,0.00
2023-03-06T00:30:33.429Z,0.00
2023-03-06T00:31:33.132Z,0.00
2023-03-06T00:32:33.179Z,0.00
2023-03-06T00:33:33.075Z,0.00
2023-03-06T00:34:33.060Z,0.00
2023-03-06T00:35:33.499Z,0.00
2023-03-06T00:36:33.036Z,0.00
2023-03-06T00:37:33.031Z,0.00
2023-03-06T00:38:33.014Z,0.00
2023-03-06T00:39:33.010Z,0.00
2023-03-06T00:40:33.319Z,0.00
2023-03-06T00:41:32.997Z,0.00
2023-03-06T00:42:32.980Z,0.00
2023-03-06T00:43:32.969Z,0.00
2023-03-06T00:44:32.963Z,0.00
2023-03-06T00:45:33.348Z,0.00
2023-03-06T00:46:32.936Z,0.00
2023-03-06T00:47:32.930Z,0.00
2023-03-06T00:48:32.919Z,0.00
2023-03-06T00:49:32.909Z,0.00
2023-03-06T00:50:33.585Z,0.00
2023-03-06T00:51:32.901Z,0.00
2023-03-06T00:52:32.873Z,0.00
2023-03-06T00:53:32.866Z,0.00
2023-03-06T00:54:32.859Z,0.00
2023-03-06T00:55:33.186Z,0.00
2023-03-06T00:56:32.833Z,0.00
2023-03-06T00:57:32.829Z,0.00
2023-03-06T00:58:32.823Z,0.00
2023-03-06T00:59:32.809Z,0.00
2023-03-06T01:00:33.633Z,0.00
2023-03-06T01:01:32.792Z,0.00
2023-03-06T01:02:32.902Z,0.00
2023-03-06T01:03:32.767Z,0.00
2023-03-06T01:04:32.755Z,0.00
2023-03-06T01:05:33.064Z,0.00
2023-03-06T01:06:33.215Z,0.00
2023-03-06T01:07:32.736Z,0.00
2023-03-06T01:08:32.724Z,0.00
2023-03-06T01:09:32.707Z,0.00
2023-03-06T01:10:32.691Z,0.00
2023-03-06T01:11:33.400Z,0.00
2023-03-06T01:12:32.671Z,0.00
2023-03-06T01:13:32.665Z,0.00
2023-03-06T01:14:32.656Z,0.00
2023-03-06T01:15:32.647Z,0.00
2023-03-06T01:16:32.671Z,0.00
2023-03-06T01:17:32.631Z,0.00
2023-03-06T01:18:32.619Z,0.00
2023-03-06T01:19:32.605Z,0.00
2023-03-06T01:20:32.592Z,0.00
2023-03-06T01:21:32.590Z,0.00
2023-03-06T01:22:32.581Z,0.00
2023-03-06T01:23:32.562Z,0.00
2023-03-06T01:24:32.552Z,0.00
2023-03-06T01:25:32.545Z,0.00
2023-03-06T01:26:32.536Z,0.00
2023-03-06T01:27:32.525Z,0.00
2023-03-06T01:28:32.509Z,0.00
2023-03-06T01:29:32.506Z,0.00
2023-03-06T01:30:32.492Z,0.00
2023-03-06T01:31:32.569Z,0.00
2023-03-06T01:32:32.504Z,0.00
2023-03-06T01:33:32.460Z,0.00
2023-03-06T01:34:32.448Z,0.00
2023-03-06T01:35:32.488Z,0.00
2023-03-06T01:36:32.431Z,0.00
2023-03-06T01:37:32.437Z,0.00
2023-03-06T01:38:32.431Z,0.00
2023-03-06T01:39:32.405Z,0.00
2023-03-06T01:40:32.394Z,0.00
2023-03-06T01:41:32.392Z,0.00
2023-03-06T01:42:32.369Z,0.00
2023-03-06T01:43:32.370Z,0.00
2023-03-06T01:44:32.354Z,0.00
2023-03-06T01:45:32.400Z,0.00
2023-03-06T01:46:32.345Z,0.00
2023-03-06T01:47:32.335Z,0.00
2023-03-06T01:48:32.314Z,0.00
2023-03-06T01:49:32.319Z,0.00
2023-03-06T01:50:32.293Z,0.00
2023-03-06T01:51:32.711Z,0.00
2023-03-06T01:52:32.280Z,0.00
2023-03-06T01:53:32.278Z,0.00
2023-03-06T01:54:32.252Z,0.00
2023-03-06T01:55:32.257Z,0.00
2023-03-06T01:56:32.557Z,0.00
2023-03-06T01:57:32.232Z,0.00
2023-03-06T01:58:32.220Z,0.00
2023-03-06T02:00:59.689Z,0.00
2023-03-06T02:01:04.727Z,0.00
2023-03-06T02:02:04.745Z,0.00
2023-03-06T02:03:04.694Z,0.00
2023-03-06T02:04:04.669Z,0.00
2023-03-06T02:05:04.672Z,0.00
2023-03-06T02:06:04.676Z,0.00
2023-03-06T02:07:04.650Z,0.00
2023-03-06T02:08:04.639Z,0.00
2023-03-06T02:09:04.624Z,0.00
2023-03-06T02:10:04.616Z,0.00
2023-03-06T02:11:04.612Z,0.00
2023-03-06T02:12:04.600Z,0.00
2023-03-06T02:13:04.588Z,0.00
2023-03-06T02:14:04.570Z,0.00
2023-03-06T02:15:04.642Z,0.00
2023-03-06T02:16:04.556Z,0.00
2023-03-06T02:17:04.558Z,0.00
2023-03-06T02:18:04.536Z,0.00
2023-03-06T02:19:04.529Z,0.00
2023-03-06T02:20:04.515Z,0.00
2023-03-06T02:21:04.504Z,0.00
2023-03-06T02:22:04.725Z,0.00
2023-03-06T02:23:04.484Z,0.00
2023-03-06T02:24:04.561Z,0.00
2023-03-06T02:25:04.467Z,0.00
2023-03-06T02:26:04.460Z,0.00
2023-03-06T02:27:04.463Z,0.00
2023-03-06T02:28:04.451Z,0.00
2023-03-06T02:29:04.426Z,0.00
2023-03-06T02:30:04.426Z,0.00
2023-03-06T02:31:04.447Z,0.00
2023-03-06T02:32:04.437Z,0.00
2023-03-06T02:33:04.398Z,0.00
2023-03-06T02:34:04.379Z,0.00
2023-03-06T02:35:04.367Z,0.00
2023-03-06T02:36:04.353Z,0.00
2023-03-06T02:37:04.351Z,0.00
2023-03-06T02:38:04.338Z,0.00
2023-03-06T02:39:04.321Z,0.00
2023-03-06T02:40:04.330Z,0.00
2023-03-06T02:41:04.306Z,0.00
2023-03-06T02:42:04.306Z,0.00
2023-03-06T02:43:04.283Z,0.00
2023-03-06T02:44:04.280Z,0.00
2023-03-06T02:45:04.282Z,0.00
2023-03-06T02:46:04.268Z,0.00
2023-03-06T02:47:04.245Z,0.00
2023-03-06T02:48:04.236Z,0.00
2023-03-06T02:49:04.223Z,0.00
2023-03-06T02:50:04.215Z,0.00
2023-03-06T02:51:04.201Z,0.00
2023-03-06T02:52:04.201Z,0.00
2023-03-06T02:53:04.191Z,0.00
2023-03-06T02:54:04.173Z,0.00
2023-03-06T02:55:04.171Z,0.00
2023-03-06T02:56:04.169Z,0.00
2023-03-06T02:57:04.162Z,0.00
2023-03-06T02:58:04.137Z,0.00
2023-03-06T02:59:04.117Z,0.00
2023-03-06T03:00:04.120Z,0.00
2023-03-06T03:01:04.100Z,0.00
2023-03-06T03:02:04.096Z,0.00
2023-03-06T03:03:04.076Z,0.00
2023-03-06T03:04:04.083Z,0.00
2023-03-06T03:05:04.062Z,0.00
2023-03-06T03:06:04.049Z,0.00
2023-03-06T03:07:04.064Z,0.00
2023-03-06T03:08:04.030Z,0.00
2023-03-06T03:09:04.023Z,0.00
2023-03-06T03:10:04.015Z,0.00
2023-03-06T03:11:03.996Z,0.00
2023-03-06T03:12:03.998Z,0.00
2023-03-06T03:13:03.983Z,0.00
2023-03-06T03:14:03.974Z,0.00
2023-03-06T03:15:03.958Z,0.00
2023-03-06T03:16:04.044Z,0.00
2023-03-06T03:17:03.944Z,0.00
2023-03-06T03:18:03.933Z,0.00
2023-03-06T03:19:03.922Z,0.00
2023-03-06T03:20:03.917Z,0.00
2023-03-06T03:21:03.899Z,0.00
2023-03-06T03:22:03.904Z,0.00
2023-03-06T03:23:03.880Z,0.00
2023-03-06T03:24:03.874Z,0.00
2023-03-06T03:25:03.863Z,0.00
2023-03-06T03:26:03.857Z,0.00
2023-03-06T03:27:03.849Z,0.00
2023-03-06T03:28:03.848Z,0.00
2023-03-06T03:29:03.824Z,0.00
2023-03-06T03:30:03.818Z,0.00
2023-03-06T03:31:03.862Z,0.00
2023-03-06T03:32:03.807Z,0.00
2023-03-06T03:33:03.790Z,0.00
2023-03-06T03:34:03.784Z,0.00
2023-03-06T03:35:03.774Z,0.00
2023-03-06T03:36:03.763Z,0.00
2023-03-06T03:37:03.749Z,0.00
2023-03-06T03:38:03.746Z,0.00
2023-03-06T03:39:03.731Z,0.00
2023-03-06T03:40:03.721Z,0.00
2023-03-06T03:41:03.703Z,0.00
2023-03-06T03:42:03.702Z,0.00
2023-03-06T03:43:03.682Z,0.00
2023-03-06T03:44:03.682Z,0.00
2023-03-06T03:45:03.666Z,0.00
2023-03-06T03:46:03.682Z,0.00
2023-03-06T03:47:03.653Z,0.00
2023-03-06T03:48:03.640Z,0.00
2023-03-06T03:49:03.626Z,0.00
2023-03-06T03:50:03.622Z,0.00
2023-03-06T03:51:03.607Z,0.00
2023-03-06T03:52:03.606Z,0.00
2023-03-06T03:53:03.598Z,0.00
2023-03-06T03:54:03.588Z,0.00
2023-03-06T03:55:03.566Z,0.00
2023-03-06T03:56:03.563Z,0.00
2023-03-06T03:57:03.563Z,0.00
2023-03-06T03:58:03.541Z,0.00
2023-03-06T03:59:03.523Z,0.00
2023-03-06T04:00:03.528Z,0.00
2023-03-06T04:01:03.520Z,0.00
2023-03-06T04:02:03.562Z,0.00
2023-03-06T04:03:03.489Z,0.00
2023-03-06T04:04:03.488Z,0.00
2023-03-06T04:05:03.514Z,0.00
2023-03-06T04:06:03.458Z,0.00
2023-03-06T04:07:03.460Z,0.00
2023-03-06T04:08:03.456Z,0.00
2023-03-06T04:09:03.426Z,0.00
2023-03-06T04:10:03.426Z,0.00
2023-03-06T04:11:03.418Z,0.00
2023-03-06T04:12:03.471Z,0.00
2023-03-06T04:13:03.393Z,0.00
2023-03-06T04:14:03.377Z,0.00
2023-03-06T04:15:03.364Z,0.00
2023-03-06T04:16:03.410Z,0.00
2023-03-06T04:17:03.361Z,0.00
2023-03-06T04:18:03.345Z,0.00
2023-03-06T04:19:03.334Z,0.00
2023-03-06T04:20:03.322Z,0.00
2023-03-06T04:21:03.307Z,0.00
2023-03-06T04:22:03.309Z,0.00
2023-03-06T04:23:03.287Z,0.00
2023-03-06T04:24:03.281Z,0.00
2023-03-06T04:25:03.272Z,0.00
2023-03-06T04:26:03.279Z,0.00
2023-03-06T04:27:03.257Z,0.00
2023-03-06T04:28:03.243Z,0.00
2023-03-06T04:29:03.233Z,0.00
2023-03-06T04:30:03.239Z,0.00
2023-03-06T04:31:03.354Z,0.00
2023-03-06T04:32:03.294Z,0.00
2023-03-06T04:33:03.191Z,0.00
2023-03-06T04:34:03.188Z,0.00
2023-03-06T04:35:03.173Z,0.00
2023-03-06T04:36:03.165Z,0.00
2023-03-06T04:37:03.156Z,0.00
2023-03-06T04:38:03.157Z,0.00
2023-03-06T04:39:03.212Z,0.00
2023-03-06T04:40:03.130Z,0.00
2023-03-06T04:41:03.112Z,0.00
2023-03-06T04:42:03.111Z,0.00
2023-03-06T04:43:03.097Z,0.00
2023-03-06T04:44:03.103Z,0.00
2023-03-06T04:45:03.070Z,0.00
2023-03-06T04:46:03.151Z,0.00
2023-03-06T04:47:03.056Z,0.00
2023-03-06T04:48:03.065Z,0.00
2023-03-06T04:49:03.032Z,0.00
2023-03-06T04:50:03.029Z,0.00
2023-03-06T04:51:03.015Z,0.00
2023-03-06T04:52:03.012Z,0.00
2023-03-06T04:53:02.988Z,0.00
2023-03-06T04:54:02.987Z,0.00
2023-03-06T04:55:02.969Z,0.00
2023-03-06T04:56:02.980Z,0.00
2023-03-06T04:57:02.960Z,0.00
2023-03-06T04:58:02.959Z,0.00
2023-03-06T04:59:02.938Z,0.00
2023-03-06T05:00:02.923Z,0.00
2023-03-06T05:01:03.046Z,0.00
2023-03-06T05:02:02.976Z,0.00
2023-03-06T05:03:02.900Z,0.00
2023-03-06T05:04:02.888Z,0.00
2023-03-06T05:05:02.869Z,0.00
2023-03-06T05:06:02.867Z,0.00
2023-03-06T05:07:02.856Z,0.00
2023-03-06T05:08:02.858Z,0.00
2023-03-06T05:09:02.856Z,0.00
2023-03-06T05:10:02.826Z,0.00
2023-03-06T05:11:02.812Z,0.00
2023-03-06T05:12:02.837Z,0.00
2023-03-06T05:13:02.800Z,0.00
2023-03-06T05:14:02.789Z,0.00
2023-03-06T05:15:02.765Z,0.00
2023-03-06T05:16:02.778Z,0.00
2023-03-06T05:17:02.759Z,0.00
2023-03-06T05:18:02.753Z,0.00
2023-03-06T05:19:02.729Z,0.00
2023-03-06T05:20:02.721Z,0.00
2023-03-06T05:21:02.711Z,0.00
2023-03-06T05:22:02.708Z,0.00
2023-03-06T05:23:02.694Z,0.00
2023-03-06T05:24:02.683Z,0.00
2023-03-06T05:25:02.669Z,0.00
2023-03-06T05:26:02.664Z,0.00
2023-03-06T05:27:03.120Z,0.00
2023-03-06T05:28:02.646Z,0.00
2023-03-06T05:29:02.626Z,0.00
2023-03-06T05:30:02.619Z,0.00
2023-03-06T05:31:03.556Z,0.00
2023-03-06T05:32:02.743Z,0.00
2023-03-06T05:33:02.586Z,1.00
2023-03-06T05:34:02.537Z,1.00
2023-03-06T05:35:02.523Z,1.00
2023-03-06T05:36:02.517Z,1.00
2023-03-06T05:37:02.565Z,0.00
2023-03-06T05:38:02.522Z,2.00
2023-03-06T05:39:02.484Z,1.00
2023-03-06T05:40:02.481Z,2.00
2023-03-06T05:41:02.467Z,1.00
2023-03-06T05:42:03.216Z,5.00
2023-03-06T05:43:02.441Z,2.00
2023-03-06T05:44:02.432Z,2.00
2023-03-06T05:45:02.463Z,4.00
2023-03-06T05:46:02.487Z,4.00
2023-03-06T05:47:02.710Z,6.00
2023-03-06T05:48:02.404Z,8.00
2023-03-06T05:49:02.388Z,9.00
2023-03-06T05:50:02.378Z,12.00
2023-03-06T05:51:02.368Z,17.00
2023-03-06T05:52:02.354Z,24.00
2023-03-06T05:53:02.347Z,30.00
2023-03-06T05:54:02.346Z,31.00
2023-03-06T05:55:02.314Z,33.00
2023-03-06T05:56:02.332Z,36.00
2023-03-06T05:57:02.305Z,36.00
2023-03-06T05:58:02.310Z,39.00
2023-03-06T05:59:02.280Z,39.00
2023-03-06T06:00:02.286Z,35.00
2023-03-06T06:01:02.262Z,36.00
2023-03-06T06:02:02.288Z,46.00
2023-03-06T06:03:02.241Z,54.00
2023-03-06T06:04:02.241Z,53.00
2023-03-06T06:05:02.226Z,58.00
2023-03-06T06:06:02.214Z,61.00
2023-03-06T06:07:02.201Z,67.00
2023-03-06T06:08:02.213Z,75.00
2023-03-06T06:09:02.185Z,97.00
2023-03-06T06:10:03.765Z,107.00
2023-03-06T06:11:02.160Z,120.00
2023-03-06T06:12:02.152Z,141.00
2023-03-06T06:13:02.149Z,164.00
2023-03-06T06:14:02.140Z,184.00
2023-03-06T06:15:02.126Z,192.00
2023-03-06T06:16:02.132Z,196.00
2023-03-06T06:17:02.102Z,224.00
2023-03-06T06:18:02.100Z,227.00
2023-03-06T06:19:02.085Z,230.00
2023-03-06T06:20:02.079Z,235.00
2023-03-06T06:21:02.056Z,248.00
2023-03-06T06:22:02.073Z,233.00
2023-03-06T06:23:02.065Z,248.00
2023-03-06T06:24:02.037Z,288.00
2023-03-06T06:25:02.026Z,291.00
2023-03-06T06:26:02.023Z,273.00
2023-03-06T06:27:03.872Z,268.00
2023-03-06T06:28:02.004Z,300.00
2023-03-06T06:29:01.980Z,329.00
2023-03-06T06:30:01.973Z,338.00
2023-03-06T06:31:01.973Z,345.00
2023-03-06T06:32:01.977Z,390.00
2023-03-06T06:33:01.955Z,396.00
2023-03-06T06:34:01.929Z,389.00
2023-03-06T06:35:01.927Z,384.00
2023-03-06T06:36:01.916Z,368.00
2023-03-06T06:37:01.906Z,363.00
2023-03-06T06:38:01.901Z,368.00
2023-03-06T06:39:01.901Z,374.00
2023-03-06T06:40:01.869Z,401.00
2023-03-06T06:41:31.073Z,457.00
2023-03-06T06:42:26.158Z,475.00
2023-03-06T06:43:01.856Z,490.00
2023-03-06T06:44:01.833Z,550.00
2023-03-06T06:45:01.851Z,620.00
2023-03-06T06:46:19.917Z,666.00
2023-03-06T06:48:01.843Z,684.00
2023-03-06T06:49:01.791Z,705.00
2023-03-06T06:50:01.789Z,751.00
2023-03-06T06:51:01.772Z,703.00
2023-03-06T06:52:01.756Z,621.00
2023-03-06T06:53:01.758Z,518.00
2023-03-06T06:54:01.744Z,565.00
2023-03-06T06:55:01.726Z,685.00
2023-03-06T06:56:01.716Z,720.00
2023-03-06T06:57:01.714Z,594.00
2023-03-06T06:58:01.807Z,581.00
2023-03-06T06:59:15.715Z,548.00
2023-03-06T07:00:01.689Z,474.00
2023-03-06T07:01:01.666Z,434.00
2023-03-06T07:02:01.657Z,422.00
2023-03-06T07:03:01.691Z,412.00
2023-03-06T07:04:01.829Z,450.00
2023-03-06T07:05:05.066Z,600.00
2023-03-06T07:06:01.612Z,725.00
2023-03-06T07:07:01.634Z,845.00
2023-03-06T07:08:01.597Z,917.00
2023-03-06T07:09:01.692Z,946.00
2023-03-06T07:10:01.586Z,833.00
2023-03-06T07:11:01.577Z,767.00
2023-03-06T07:12:01.602Z,881.00
2023-03-06T07:13:01.552Z,983.00
2023-03-06T07:14:01.540Z,977.00
2023-03-06T07:15:01.537Z,799.00
2023-03-06T07:16:01.564Z,693.00
2023-03-06T07:17:01.503Z,722.00
2023-03-06T07:18:01.498Z,699.00
2023-03-06T07:19:01.505Z,749.00
2023-03-06T07:20:01.475Z,854.00
2023-03-06T07:21:01.601Z,877.00
2023-03-06T07:22:01.463Z,854.00
2023-03-06T07:23:01.491Z,983.00
2023-03-06T07:24:01.434Z,1126.00
2023-03-06T07:25:01.448Z,1146.00
2023-03-06T07:26:01.421Z,1105.00
2023-03-06T07:27:01.409Z,1127.00
2023-03-06T07:28:01.396Z,1165.00
2023-03-06T07:29:01.400Z,1260.00
2023-03-06T07:30:01.374Z,1502.00
2023-03-06T07:31:01.406Z,1704.00
2023-03-06T07:32:01.437Z,1769.00
2023-03-06T07:33:01.360Z,1975.00
2023-03-06T07:34:03.844Z,2010.00
2023-03-06T07:35:18.952Z,2167.00
2023-03-06T07:36:01.392Z,2270.00
2023-03-06T07:37:01.337Z,2071.00
2023-03-06T07:38:01.297Z,1346.00
2023-03-06T07:39:01.301Z,1167.00
2023-03-06T07:40:01.287Z,1278.00
2023-03-06T07:41:01.269Z,1268.00
2023-03-06T07:42:01.279Z,1759.00
2023-03-06T07:43:16.926Z,1952.00
2023-03-06T07:44:01.261Z,1757.00
2023-03-06T07:45:01.252Z,1960.00
2023-03-06T07:46:01.228Z,1998.00
2023-03-06T07:47:01.210Z,2034.00
2023-03-06T07:48:01.204Z,2316.00
2023-03-06T07:49:01.205Z,2375.00
2023-03-06T07:50:01.179Z,2210.00
2023-03-06T07:51:01.203Z,1964.00
2023-03-06T07:52:01.160Z,1475.00
2023-03-06T07:53:01.150Z,1330.00
2023-03-06T07:54:01.147Z,1118.00
2023-03-06T07:55:01.148Z,928.00
2023-03-06T07:56:01.134Z,881.00
2023-03-06T07:57:01.125Z,838.00
2023-03-06T07:58:01.132Z,744.00
2023-03-06T07:59:01.094Z,661.00
2023-03-06T08:00:01.073Z,625.00
2023-03-06T08:01:01.123Z,612.00
2023-03-06T08:02:01.063Z,616.00
2023-03-06T08:03:01.141Z,536.00
2023-03-06T08:04:01.115Z,415.00
2023-03-06T08:05:01.044Z,578.00
2023-03-06T08:06:01.025Z,624.00
2023-03-06T08:07:01.019Z,730.00
2023-03-06T08:08:01.001Z,758.00
2023-03-06T08:09:01.000Z,801.00
2023-03-06T08:10:00.982Z,682.00
2023-03-06T08:11:00.968Z,883.00
2023-03-06T08:12:00.961Z,989.00
2023-03-06T08:13:00.952Z,976.00
2023-03-06T08:14:00.941Z,987.00
2023-03-06T08:15:00.934Z,961.00
2023-03-06T08:16:00.955Z,1120.00
2023-03-06T08:17:00.909Z,1339.00
2023-03-06T08:18:00.916Z,1609.00
2023-03-06T08:19:00.895Z,1691.00
2023-03-06T08:20:00.876Z,1903.00
2023-03-06T08:21:00.868Z,1917.00
2023-03-06T08:22:00.864Z,2146.00
2023-03-06T08:23:00.864Z,2148.00
2023-03-06T08:24:00.835Z,2315.00
2023-03-06T08:25:00.826Z,2212.00
2023-03-06T08:26:00.825Z,2018.00
2023-03-06T08:27:00.813Z,1750.00
2023-03-06T08:28:00.974Z,1612.00
2023-03-06T08:29:00.791Z,1488.00
2023-03-06T08:30:00.801Z,1340.00
2023-03-06T08:31:00.765Z,1161.00
2023-03-06T08:32:00.761Z,1128.00
2023-03-06T08:33:01.588Z,1287.00
2023-03-06T08:34:00.734Z,1356.00
2023-03-06T08:35:00.725Z,1211.00
2023-03-06T08:36:02.073Z,1348.00
2023-03-06T08:37:00.710Z,1502.00
2023-03-06T08:38:00.998Z,1471.00
2023-03-06T08:39:00.692Z,1372.00
2023-03-06T08:40:00.693Z,1162.00
2023-03-06T08:41:00.668Z,1225.00
2023-03-06T08:42:00.654Z,1184.00
2023-03-06T08:43:01.451Z,1200.00
2023-03-06T08:44:00.632Z,1335.00
2023-03-06T08:45:00.625Z,1360.00
2023-03-06T08:46:00.680Z,1339.00
2023-03-06T08:47:00.606Z,1385.00
2023-03-06T08:48:01.055Z,1366.00
2023-03-06T08:49:00.594Z,1308.00
2023-03-06T08:50:00.935Z,1316.00
2023-03-06T08:51:00.581Z,1274.00
2023-03-06T08:52:00.545Z,1278.00
2023-03-06T08:53:00.544Z,1165.00
2023-03-06T08:54:00.543Z,1087.00
2023-03-06T08:55:00.528Z,932.00
2023-03-06T08:56:00.508Z,873.00
2023-03-06T08:57:00.507Z,945.00
2023-03-06T08:58:00.488Z,1207.00
2023-03-06T08:59:00.500Z,1499.00
2023-03-06T09:00:00.502Z,1587.00
2023-03-06T09:01:00.612Z,1736.00
2023-03-06T09:02:00.518Z,2232.00
2023-03-06T09:03:00.450Z,2760.00
2023-03-06T09:04:00.444Z,2486.00
2023-03-06T09:05:00.421Z,2165.00
2023-03-06T09:06:00.413Z,1818.00
2023-03-06T09:07:00.401Z,1549.00
2023-03-06T09:08:00.391Z,1359.00
2023-03-06T09:09:00.403Z,1294.00
2023-03-06T09:10:00.366Z,1949.00
2023-03-06T09:11:00.370Z,2539.00
2023-03-06T09:12:00.342Z,2366.00
2023-03-06T09:13:00.335Z,2394.00
2023-03-06T09:14:00.327Z,2301.00
2023-03-06T09:15:00.330Z,1717.00
2023-03-06T09:16:00.303Z,1474.00
2023-03-06T09:17:00.315Z,1912.00
2023-03-06T09:18:00.375Z,2928.00
2023-03-06T09:19:00.288Z,3689.00
2023-03-06T09:20:00.274Z,3581.00
2023-03-06T09:21:00.274Z,3111.00
2023-03-06T09:22:00.248Z,2494.00
2023-03-06T09:23:00.249Z,2159.00
2023-03-06T09:24:00.275Z,3717.00
2023-03-06T09:25:00.222Z,4019.00
2023-03-06T09:26:00.201Z,2264.00
2023-03-06T09:27:00.204Z,2320.00
2023-03-06T09:28:10.956Z,3432.00
2023-03-06T09:29:00.206Z,5082.00
2023-03-06T09:30:00.179Z,4596.00
2023-03-06T09:31:00.186Z,4736.00
2023-03-06T09:32:00.308Z,4201.00
2023-03-06T09:33:00.137Z,3912.00
2023-03-06T09:34:00.142Z,4965.00
2023-03-06T09:35:00.140Z,4259.00
2023-03-06T09:36:00.186Z,4929.00
2023-03-06T09:37:00.104Z,5789.00
2023-03-06T09:38:00.122Z,5886.00
2023-03-06T09:39:00.098Z,5809.00
2023-03-06T09:40:00.106Z,5593.00
2023-03-06T09:41:00.082Z,5273.00
2023-03-06T09:42:00.062Z,4615.00
2023-03-06T09:43:00.040Z,3781.00
2023-03-06T09:44:00.038Z,3530.00
2023-03-06T09:45:00.022Z,3542.00
2023-03-06T09:46:00.088Z,3859.00
2023-03-06T09:46:59.999Z,1980.00
2023-03-06T09:47:59.991Z,7507.00
2023-03-06T09:48:59.985Z,4497.00
2023-03-06T09:49:59.965Z,3017.00
2023-03-06T09:50:59.965Z,5468.00
2023-03-06T09:51:59.944Z,6351.00
2023-03-06T09:52:59.936Z,6241.00
2023-03-06T09:53:59.939Z,6994.00
2023-03-06T09:54:59.919Z,8376.00
2023-03-06T09:55:59.907Z,4948.00
2023-03-06T09:56:59.930Z,7018.00
2023-03-06T09:57:59.880Z,5708.00
2023-03-06T09:58:59.881Z,5580.00
2023-03-06T10:00:01.473Z,5206.00
2023-03-06T10:00:59.858Z,4566.00
2023-03-06T10:01:59.852Z,3939.00
2023-03-06T10:02:59.950Z,3258.00
2023-03-06T10:03:59.843Z,2796.00
2023-03-06T10:04:59.869Z,2433.00
2023-03-06T10:06:02.435Z,2277.00
2023-03-06T10:06:59.832Z,2121.00
2023-03-06T10:07:59.814Z,1910.00
2023-03-06T10:08:59.783Z,1790.00
2023-03-06T10:09:59.770Z,1828.00
2023-03-06T10:10:59.758Z,1981.00
2023-03-06T10:11:59.764Z,2245.00
2023-03-06T10:12:59.737Z,2730.00
2023-03-06T10:13:59.733Z,2890.00
2023-03-06T10:14:59.817Z,3126.00
2023-03-06T10:15:59.733Z,3340.00
2023-03-06T10:16:59.731Z,3700.00
2023-03-06T10:17:59.688Z,3965.00
2023-03-06T10:18:59.696Z,4112.00
2023-03-06T10:19:59.719Z,4163.00
2023-03-06T10:21:13.446Z,4419.00
2023-03-06T10:21:59.653Z,4742.00
2023-03-06T10:23:03.131Z,4853.00
2023-03-06T10:23:59.672Z,6189.00
2023-03-06T10:24:59.680Z,6446.00
2023-03-06T10:25:59.780Z,7085.00
2023-03-06T10:26:59.827Z,7277.00
2023-03-06T10:27:59.583Z,7319.00
2023-03-06T10:28:59.604Z,7067.00
2023-03-06T10:30:03.230Z,6433.00
2023-03-06T10:30:59.673Z,5607.00
2023-03-06T10:31:59.545Z,4930.00
2023-03-06T10:32:59.657Z,4094.00
2023-03-06T10:33:59.534Z,3329.00
2023-03-06T10:34:59.601Z,2777.00
2023-03-06T10:35:59.596Z,2328.00
2023-03-06T10:36:59.518Z,2002.00
2023-03-06T10:37:59.512Z,1777.00
2023-03-06T10:38:59.563Z,1667.00
2023-03-06T10:39:59.511Z,1786.00
2023-03-06T10:40:59.465Z,2065.00
2023-03-06T10:41:59.452Z,2167.00
2023-03-06T10:43:11.067Z,2094.00
2023-03-06T10:43:59.500Z,2173.00
2023-03-06T10:44:59.417Z,2484.00
2023-03-06T10:45:59.472Z,2807.00
2023-03-06T10:46:59.397Z,3366.00
2023-03-06T10:47:59.406Z,3732.00
2023-03-06T10:48:59.553Z,3493.00
2023-03-06T10:49:59.479Z,2914.00
2023-03-06T10:51:01.090Z,2388.00
2023-03-06T10:51:59.351Z,2498.00
2023-03-06T10:52:59.343Z,3202.00
2023-03-06T10:53:59.333Z,3857.00
2023-03-06T10:54:59.327Z,4220.00
2023-03-06T10:55:59.330Z,3991.00
2023-03-06T10:56:59.309Z,3342.00
2023-03-06T10:57:59.301Z,2634.00
2023-03-06T10:58:59.277Z,2182.00
2023-03-06T10:59:59.273Z,1922.00
2023-03-06T11:00:59.256Z,1830.00
2023-03-06T11:01:59.382Z,1798.00
2023-03-06T11:02:59.255Z,1727.00
2023-03-06T11:03:59.239Z,1622.00
2023-03-06T11:04:59.241Z,1595.00
2023-03-06T11:05:59.228Z,1615.00
2023-03-06T11:06:59.189Z,1598.00
2023-03-06T11:07:59.189Z,1613.00
2023-03-06T11:08:59.624Z,1569.00
2023-03-06T11:09:59.176Z,1513.00
2023-03-06T11:10:59.171Z,1455.00
2023-03-06T11:11:59.144Z,1403.00
2023-03-06T11:12:59.276Z,1373.00
2023-03-06T11:13:59.971Z,1393.00
2023-03-06T11:14:59.123Z,1452.00
2023-03-06T11:15:59.198Z,1465.00
2023-03-06T11:16:59.092Z,1470.00
2023-03-06T11:17:59.087Z,1500.00
2023-03-06T11:18:59.531Z,1696.00
2023-03-06T11:19:59.105Z,2175.00
2023-03-06T11:20:59.045Z,2530.00
2023-03-06T11:21:59.056Z,2738.00
2023-03-06T11:22:59.618Z,3197.00
2023-03-06T11:23:59.356Z,3622.00
2023-03-06T11:24:59.006Z,3846.00
2023-03-06T11:25:58.999Z,3923.00
2023-03-06T11:26:59.018Z,4024.00
2023-03-06T11:27:58.992Z,4320.00
2023-03-06T11:28:59.359Z,4591.00
2023-03-06T11:29:58.956Z,4928.00
2023-03-06T11:30:58.975Z,5070.00
2023-03-06T11:31:58.952Z,5123.00
2023-03-06T11:32:58.952Z,4908.00
2023-03-06T11:33:59.698Z,4640.00
2023-03-06T11:34:58.929Z,4271.00
2023-03-06T11:35:58.948Z,3861.00
2023-03-06T11:36:58.891Z,3346.00
2023-03-06T11:37:58.881Z,3122.00
2023-03-06T11:38:59.251Z,3142.00
2023-03-06T11:39:58.864Z,3270.00
2023-03-06T11:40:58.843Z,3581.00
2023-03-06T11:41:58.920Z,4182.00
2023-03-06T11:42:58.909Z,4940.00
2023-03-06T11:43:58.818Z,5160.00
2023-03-06T11:44:59.931Z,5090.00
2023-03-06T11:45:58.806Z,4750.00
2023-03-06T11:46:58.842Z,4495.00
2023-03-06T11:47:58.801Z,4119.00
2023-03-06T11:48:58.759Z,3679.00
2023-03-06T11:49:58.782Z,3416.00
2023-03-06T11:50:58.734Z,3717.00
2023-03-06T11:51:58.764Z,4206.00
2023-03-06T11:52:58.746Z,4431.00
2023-03-06T11:53:58.737Z,4357.00
2023-03-06T11:54:58.760Z,4134.00
2023-03-06T11:55:58.732Z,3748.00
2023-03-06T11:56:58.712Z,3256.00
2023-03-06T11:57:58.671Z,2971.00
2023-03-06T11:58:58.672Z,2942.00
2023-03-06T11:59:58.654Z,2823.00
2023-03-06T12:00:58.649Z,2882.00
2023-03-06T12:01:58.678Z,3192.00
2023-03-06T12:02:58.641Z,3459.00
2023-03-06T12:03:58.729Z,3340.00
2023-03-06T12:04:58.618Z,3167.00
2023-03-06T12:05:58.723Z,3048.00
2023-03-06T12:06:58.698Z,3094.00
2023-03-06T12:07:58.580Z,3310.00
2023-03-06T12:08:58.570Z,3413.00
2023-03-06T12:09:58.564Z,3446.00
2023-03-06T12:10:58.538Z,3396.00
2023-03-06T12:11:58.569Z,3206.00
2023-03-06T12:12:58.570Z,2966.00
2023-03-06T12:13:59.442Z,2769.00
2023-03-06T12:14:58.522Z,2496.00
2023-03-06T12:15:58.498Z,2239.00
2023-03-06T12:16:58.499Z,2056.00
2023-03-06T12:17:58.576Z,1830.00
2023-03-06T12:18:58.542Z,1734.00
2023-03-06T12:19:58.475Z,1918.00
2023-03-06T12:20:58.434Z,1926.00
2023-03-06T12:21:58.501Z,1495.00
2023-03-06T12:23:14.570Z,1389.00
2023-03-06T12:23:58.423Z,1430.00
2023-03-06T12:24:58.415Z,1484.00
2023-03-06T12:25:58.494Z,1443.00
2023-03-06T12:26:58.474Z,1424.00
2023-03-06T12:27:58.376Z,1453.00
2023-03-06T12:28:58.349Z,1475.00
2023-03-06T12:29:58.399Z,1410.00
2023-03-06T12:30:58.374Z,1296.00
2023-03-06T12:31:58.374Z,1209.00
2023-03-06T12:32:58.308Z,1145.00
2023-03-06T12:33:58.397Z,1172.00
2023-03-06T12:34:58.361Z,1184.00
2023-03-06T12:35:58.348Z,1090.00
2023-03-06T12:36:58.282Z,1089.00
2023-03-06T12:37:58.272Z,1015.00
2023-03-06T12:38:58.249Z,985.00
2023-03-06T12:39:58.315Z,1097.00
2023-03-06T12:40:58.244Z,1415.00
2023-03-06T12:41:58.256Z,1575.00
2023-03-06T12:42:58.210Z,1543.00